sensor_id;sensor_type;location;lat;lon;timestamp;P1;durP1;ratioP1;P2;durP2;ratioP2
1591;SDS011;789;51.612;7.510;2023-04-25T00:00:28;18.20;;;7.70;;
1591;SDS011;789;51.612;7.510;2023-04-25T00:02:55;12.67;;;7.27;;
1591;SDS011;789;51.612;7.510;2023-04-25T00:05:22;15.63;;;7.53;;
1591;SDS011;789;51.612;7.510;2023-04-25T00:07:49;14.57;;;7.83;;
1591;SDS011;789;51.612;7.510;2023-04-25T00:10:16;14.10;;;7.67;;
1591;SDS011;789;51.612;7.510;2023-04-25T00:12:43;12.93;;;7.40;;
1591;SDS011;789;51.612;7.510;2023-04-25T00:15:12;13.90;;;7.40;;
1591;SDS011;789;51.612;7.510;2023-04-25T00:17:39;18.70;;;7.90;;
1591;SDS011;789;51.612;7.510;2023-04-25T00:20:06;12.10;;;6.97;;
1591;SDS011;789;51.612;7.510;2023-04-25T00:22:34;21.93;;;8.07;;
1591;SDS011;789;51.612;7.510;2023-04-25T00:25:02;19.47;;;8.00;;
1591;SDS011;789;51.612;7.510;2023-04-25T00:27:32;14.40;;;8.00;;
1591;SDS011;789;51.612;7.510;2023-04-25T00:29:58;12.57;;;7.63;;
1591;SDS011;789;51.612;7.510;2023-04-25T00:32:27;13.77;;;7.50;;
1591;SDS011;789;51.612;7.510;2023-04-25T00:34:54;11.57;;;8.00;;
1591;SDS011;789;51.612;7.510;2023-04-25T00:37:22;11.80;;;7.80;;
1591;SDS011;789;51.612;7.510;2023-04-25T00:39:49;11.87;;;7.60;;
1591;SDS011;789;51.612;7.510;2023-04-25T00:42:18;13.70;;;8.10;;
1591;SDS011;789;51.612;7.510;2023-04-25T00:44:45;11.70;;;7.60;;
1591;SDS011;789;51.612;7.510;2023-04-25T00:47:13;17.37;;;7.90;;
1591;SDS011;789;51.612;7.510;2023-04-25T00:49:43;13.20;;;7.40;;
1591;SDS011;789;51.612;7.510;2023-04-25T00:52:10;11.00;;;7.00;;
1591;SDS011;789;51.612;7.510;2023-04-25T00:54:37;12.60;;;7.87;;
1591;SDS011;789;51.612;7.510;2023-04-25T00:57:04;13.73;;;7.87;;
1591;SDS011;789;51.612;7.510;2023-04-25T00:59:33;19.07;;;7.77;;
1591;SDS011;789;51.612;7.510;2023-04-25T01:02:02;10.93;;;6.57;;
1591;SDS011;789;51.612;7.510;2023-04-25T01:04:30;16.07;;;8.37;;
1591;SDS011;789;51.612;7.510;2023-04-25T01:06:58;13.87;;;8.33;;
1591;SDS011;789;51.612;7.510;2023-04-25T01:09:27;18.43;;;8.57;;
1591;SDS011;789;51.612;7.510;2023-04-25T01:11:56;16.87;;;8.17;;
1591;SDS011;789;51.612;7.510;2023-04-25T01:14:23;8.47;;;7.30;;
1591;SDS011;789;51.612;7.510;2023-04-25T01:16:50;14.90;;;7.73;;
1591;SDS011;789;51.612;7.510;2023-04-25T01:19:17;10.20;;;6.93;;
1591;SDS011;789;51.612;7.510;2023-04-25T01:21:46;14.70;;;7.67;;
1591;SDS011;789;51.612;7.510;2023-04-25T01:24:14;11.27;;;7.80;;
1591;SDS011;789;51.612;7.510;2023-04-25T01:26:41;12.37;;;7.00;;
1591;SDS011;789;51.612;7.510;2023-04-25T01:29:09;13.40;;;7.43;;
1591;SDS011;789;51.612;7.510;2023-04-25T01:31:36;11.43;;;7.80;;
1591;SDS011;789;51.612;7.510;2023-04-25T01:34:04;10.40;;;6.90;;
1591;SDS011;789;51.612;7.510;2023-04-25T01:36:31;13.63;;;7.00;;
1591;SDS011;789;51.612;7.510;2023-04-25T01:39:01;8.67;;;6.80;;
1591;SDS011;789;51.612;7.510;2023-04-25T01:41:28;11.80;;;6.80;;
1591;SDS011;789;51.612;7.510;2023-04-25T01:43:55;9.73;;;7.30;;
1591;SDS011;789;51.612;7.510;2023-04-25T01:46:23;11.53;;;7.80;;
1591;SDS011;789;51.612;7.510;2023-04-25T01:48:50;11.80;;;7.13;;
1591;SDS011;789;51.612;7.510;2023-04-25T01:51:17;9.50;;;7.03;;
1591;SDS011;789;51.612;7.510;2023-04-25T01:53:44;11.93;;;7.00;;
1591;SDS011;789;51.612;7.510;2023-04-25T01:56:13;12.60;;;7.07;;
1591;SDS011;789;51.612;7.510;2023-04-25T01:58:40;12.17;;;7.20;;
1591;SDS011;789;51.612;7.510;2023-04-25T02:01:06;13.97;;;7.20;;
1591;SDS011;789;51.612;7.510;2023-04-25T02:03:33;8.93;;;7.00;;
1591;SDS011;789;51.612;7.510;2023-04-25T02:06:00;11.57;;;6.93;;
1591;SDS011;789;51.612;7.510;2023-04-25T02:08:27;13.03;;;7.50;;
1591;SDS011;789;51.612;7.510;2023-04-25T02:10:55;11.53;;;7.23;;
1591;SDS011;789;51.612;7.510;2023-04-25T02:13:23;15.80;;;7.10;;
1591;SDS011;789;51.612;7.510;2023-04-25T02:15:50;9.03;;;6.37;;
1591;SDS011;789;51.612;7.510;2023-04-25T02:18:17;14.10;;;6.90;;
1591;SDS011;789;51.612;7.510;2023-04-25T02:20:44;12.10;;;7.87;;
1591;SDS011;789;51.612;7.510;2023-04-25T02:23:11;10.47;;;6.93;;
1591;SDS011;789;51.612;7.510;2023-04-25T02:25:40;9.20;;;7.60;;
1591;SDS011;789;51.612;7.510;2023-04-25T02:28:07;10.00;;;7.80;;
1591;SDS011;789;51.612;7.510;2023-04-25T02:30:35;9.93;;;6.50;;
1591;SDS011;789;51.612;7.510;2023-04-25T02:33:02;18.23;;;7.53;;
1591;SDS011;789;51.612;7.510;2023-04-25T02:35:29;13.03;;;7.70;;
1591;SDS011;789;51.612;7.510;2023-04-25T02:37:56;12.50;;;6.73;;
1591;SDS011;789;51.612;7.510;2023-04-25T02:40:22;12.37;;;6.93;;
1591;SDS011;789;51.612;7.510;2023-04-25T02:42:49;12.33;;;6.53;;
1591;SDS011;789;51.612;7.510;2023-04-25T02:45:16;13.83;;;6.80;;
1591;SDS011;789;51.612;7.510;2023-04-25T02:47:44;11.50;;;7.27;;
1591;SDS011;789;51.612;7.510;2023-04-25T02:50:11;13.13;;;7.10;;
1591;SDS011;789;51.612;7.510;2023-04-25T02:52:38;11.60;;;6.77;;
1591;SDS011;789;51.612;7.510;2023-04-25T02:55:05;13.90;;;7.57;;
1591;SDS011;789;51.612;7.510;2023-04-25T02:57:32;18.00;;;7.73;;
1591;SDS011;789;51.612;7.510;2023-04-25T02:59:59;16.90;;;8.47;;
1591;SDS011;789;51.612;7.510;2023-04-25T03:02:26;16.43;;;7.80;;
1591;SDS011;789;51.612;7.510;2023-04-25T03:04:54;17.27;;;8.63;;
1591;SDS011;789;51.612;7.510;2023-04-25T03:07:24;14.50;;;7.83;;
1591;SDS011;789;51.612;7.510;2023-04-25T03:09:51;12.37;;;7.80;;
1591;SDS011;789;51.612;7.510;2023-04-25T03:12:18;12.30;;;7.57;;
1591;SDS011;789;51.612;7.510;2023-04-25T03:14:45;15.87;;;8.00;;
1591;SDS011;789;51.612;7.510;2023-04-25T03:17:12;13.47;;;7.17;;
1591;SDS011;789;51.612;7.510;2023-04-25T03:19:39;18.90;;;8.70;;
1591;SDS011;789;51.612;7.510;2023-04-25T03:22:07;13.73;;;7.90;;
1591;SDS011;789;51.612;7.510;2023-04-25T03:24:33;13.13;;;7.53;;
1591;SDS011;789;51.612;7.510;2023-04-25T03:27:01;15.47;;;7.97;;
1591;SDS011;789;51.612;7.510;2023-04-25T03:29:28;17.57;;;8.40;;
1591;SDS011;789;51.612;7.510;2023-04-25T03:31:55;19.80;;;8.43;;
1591;SDS011;789;51.612;7.510;2023-04-25T03:34:22;14.30;;;7.40;;
1591;SDS011;789;51.612;7.510;2023-04-25T03:36:49;22.20;;;8.10;;
1591;SDS011;789;51.612;7.510;2023-04-25T03:39:17;15.70;;;7.73;;
1591;SDS011;789;51.612;7.510;2023-04-25T03:41:44;15.20;;;7.77;;
1591;SDS011;789;51.612;7.510;2023-04-25T03:44:11;18.63;;;7.27;;
1591;SDS011;789;51.612;7.510;2023-04-25T03:46:37;12.33;;;6.83;;
1591;SDS011;789;51.612;7.510;2023-04-25T03:49:05;16.97;;;8.10;;
1591;SDS011;789;51.612;7.510;2023-04-25T03:51:34;13.07;;;7.20;;
1591;SDS011;789;51.612;7.510;2023-04-25T03:54:01;17.47;;;7.90;;
1591;SDS011;789;51.612;7.510;2023-04-25T03:56:29;13.80;;;7.57;;
1591;SDS011;789;51.612;7.510;2023-04-25T03:58:56;16.10;;;7.20;;
1591;SDS011;789;51.612;7.510;2023-04-25T04:01:23;13.80;;;6.80;;
1591;SDS011;789;51.612;7.510;2023-04-25T04:03:50;14.77;;;7.47;;
1591;SDS011;789;51.612;7.510;2023-04-25T04:06:16;16.23;;;7.17;;
1591;SDS011;789;51.612;7.510;2023-04-25T04:08:45;17.40;;;8.43;;
1591;SDS011;789;51.612;7.510;2023-04-25T04:11:12;21.10;;;9.33;;
1591;SDS011;789;51.612;7.510;2023-04-25T04:13:40;17.13;;;7.60;;
1591;SDS011;789;51.612;7.510;2023-04-25T04:16:07;16.47;;;7.37;;
1591;SDS011;789;51.612;7.510;2023-04-25T04:18:34;15.77;;;8.03;;
1591;SDS011;789;51.612;7.510;2023-04-25T04:21:01;14.93;;;7.50;;
1591;SDS011;789;51.612;7.510;2023-04-25T04:23:28;20.67;;;7.60;;
1591;SDS011;789;51.612;7.510;2023-04-25T04:25:55;14.57;;;7.73;;
1591;SDS011;789;51.612;7.510;2023-04-25T04:28:22;16.03;;;7.70;;
1591;SDS011;789;51.612;7.510;2023-04-25T04:30:51;14.30;;;8.03;;
1591;SDS011;789;51.612;7.510;2023-04-25T04:33:18;18.47;;;8.40;;
1591;SDS011;789;51.612;7.510;2023-04-25T04:35:45;15.07;;;8.37;;
1591;SDS011;789;51.612;7.510;2023-04-25T04:38:13;16.23;;;7.83;;
1591;SDS011;789;51.612;7.510;2023-04-25T04:40:41;16.30;;;6.60;;
1591;SDS011;789;51.612;7.510;2023-04-25T04:43:08;12.07;;;7.20;;
1591;SDS011;789;51.612;7.510;2023-04-25T04:45:36;15.87;;;7.30;;
1591;SDS011;789;51.612;7.510;2023-04-25T04:48:06;13.70;;;7.37;;
1591;SDS011;789;51.612;7.510;2023-04-25T04:50:33;14.10;;;7.30;;
1591;SDS011;789;51.612;7.510;2023-04-25T04:53:01;15.67;;;8.03;;
1591;SDS011;789;51.612;7.510;2023-04-25T04:55:28;21.20;;;7.27;;
1591;SDS011;789;51.612;7.510;2023-04-25T04:57:55;15.60;;;7.90;;
1591;SDS011;789;51.612;7.510;2023-04-25T05:00:22;18.73;;;7.27;;
1591;SDS011;789;51.612;7.510;2023-04-25T05:02:49;21.10;;;7.50;;
1591;SDS011;789;51.612;7.510;2023-04-25T05:05:17;14.27;;;6.77;;
1591;SDS011;789;51.612;7.510;2023-04-25T05:07:44;11.60;;;6.10;;
1591;SDS011;789;51.612;7.510;2023-04-25T05:10:11;21.63;;;7.50;;
1591;SDS011;789;51.612;7.510;2023-04-25T05:12:37;13.23;;;5.87;;
1591;SDS011;789;51.612;7.510;2023-04-25T05:15:04;17.90;;;5.33;;
1591;SDS011;789;51.612;7.510;2023-04-25T05:17:32;12.63;;;5.17;;
1591;SDS011;789;51.612;7.510;2023-04-25T05:19:58;11.17;;;4.70;;
1591;SDS011;789;51.612;7.510;2023-04-25T05:22:27;12.57;;;5.23;;
1591;SDS011;789;51.612;7.510;2023-04-25T05:24:53;13.73;;;4.70;;
1591;SDS011;789;51.612;7.510;2023-04-25T05:27:20;20.07;;;5.63;;
1591;SDS011;789;51.612;7.510;2023-04-25T05:29:47;14.40;;;5.30;;
1591;SDS011;789;51.612;7.510;2023-04-25T05:32:14;20.30;;;4.60;;
1591;SDS011;789;51.612;7.510;2023-04-25T05:34:43;12.20;;;4.43;;
1591;SDS011;789;51.612;7.510;2023-04-25T05:37:10;12.77;;;4.40;;
1591;SDS011;789;51.612;7.510;2023-04-25T05:39:38;13.23;;;5.57;;
1591;SDS011;789;51.612;7.510;2023-04-25T05:42:05;15.57;;;5.80;;
1591;SDS011;789;51.612;7.510;2023-04-25T05:44:32;10.63;;;5.50;;
1591;SDS011;789;51.612;7.510;2023-04-25T05:46:59;14.33;;;6.33;;
1591;SDS011;789;51.612;7.510;2023-04-25T05:49:25;10.10;;;5.30;;
1591;SDS011;789;51.612;7.510;2023-04-25T05:51:52;17.10;;;6.50;;
1591;SDS011;789;51.612;7.510;2023-04-25T05:54:19;16.47;;;5.70;;
1591;SDS011;789;51.612;7.510;2023-04-25T05:56:47;12.37;;;5.47;;
1591;SDS011;789;51.612;7.510;2023-04-25T05:59:14;13.97;;;4.57;;
1591;SDS011;789;51.612;7.510;2023-04-25T06:01:41;14.90;;;4.77;;
1591;SDS011;789;51.612;7.510;2023-04-25T06:04:08;13.53;;;5.40;;
1591;SDS011;789;51.612;7.510;2023-04-25T06:06:35;15.70;;;5.50;;
1591;SDS011;789;51.612;7.510;2023-04-25T06:09:02;15.30;;;5.23;;
1591;SDS011;789;51.612;7.510;2023-04-25T06:11:29;9.20;;;5.20;;
1591;SDS011;789;51.612;7.510;2023-04-25T06:13:57;22.67;;;6.73;;
1591;SDS011;789;51.612;7.510;2023-04-25T06:16:24;16.97;;;5.93;;
1591;SDS011;789;51.612;7.510;2023-04-25T06:18:51;15.60;;;5.57;;
1591;SDS011;789;51.612;7.510;2023-04-25T06:21:18;11.30;;;4.90;;
1591;SDS011;789;51.612;7.510;2023-04-25T06:23:45;14.20;;;5.03;;
1591;SDS011;789;51.612;7.510;2023-04-25T06:26:11;20.87;;;5.27;;
1591;SDS011;789;51.612;7.510;2023-04-25T06:28:41;15.90;;;5.57;;
1591;SDS011;789;51.612;7.510;2023-04-25T06:31:09;15.57;;;5.87;;
1591;SDS011;789;51.612;7.510;2023-04-25T06:33:37;14.80;;;4.40;;
1591;SDS011;789;51.612;7.510;2023-04-25T06:36:04;11.57;;;4.70;;
1591;SDS011;789;51.612;7.510;2023-04-25T06:38:31;11.37;;;4.53;;
1591;SDS011;789;51.612;7.510;2023-04-25T06:40:59;17.07;;;5.77;;
1591;SDS011;789;51.612;7.510;2023-04-25T06:43:26;10.73;;;5.57;;
1591;SDS011;789;51.612;7.510;2023-04-25T06:45:57;14.60;;;4.57;;
1591;SDS011;789;51.612;7.510;2023-04-25T06:48:26;18.57;;;5.27;;
1591;SDS011;789;51.612;7.510;2023-04-25T06:50:53;12.57;;;4.67;;
1591;SDS011;789;51.612;7.510;2023-04-25T06:53:21;11.03;;;4.80;;
1591;SDS011;789;51.612;7.510;2023-04-25T06:55:48;10.37;;;4.50;;
1591;SDS011;789;51.612;7.510;2023-04-25T06:58:15;10.20;;;4.10;;
1591;SDS011;789;51.612;7.510;2023-04-25T07:00:42;15.10;;;5.47;;
1591;SDS011;789;51.612;7.510;2023-04-25T07:03:09;8.73;;;4.43;;
1591;SDS011;789;51.612;7.510;2023-04-25T07:05:37;12.90;;;4.10;;
1591;SDS011;789;51.612;7.510;2023-04-25T07:08:04;8.83;;;3.70;;
1591;SDS011;789;51.612;7.510;2023-04-25T07:10:31;8.60;;;4.93;;
1591;SDS011;789;51.612;7.510;2023-04-25T07:12:57;16.40;;;4.87;;
1591;SDS011;789;51.612;7.510;2023-04-25T07:15:24;9.60;;;4.20;;
1591;SDS011;789;51.612;7.510;2023-04-25T07:17:51;12.70;;;4.53;;
1591;SDS011;789;51.612;7.510;2023-04-25T07:20:18;17.23;;;4.87;;
1591;SDS011;789;51.612;7.510;2023-04-25T07:22:46;15.17;;;4.07;;
1591;SDS011;789;51.612;7.510;2023-04-25T07:25:13;17.40;;;4.83;;
1591;SDS011;789;51.612;7.510;2023-04-25T07:27:40;15.93;;;4.90;;
1591;SDS011;789;51.612;7.510;2023-04-25T07:30:07;12.10;;;3.67;;
1591;SDS011;789;51.612;7.510;2023-04-25T07:32:34;15.93;;;4.80;;
1591;SDS011;789;51.612;7.510;2023-04-25T07:35:01;15.87;;;3.93;;
1591;SDS011;789;51.612;7.510;2023-04-25T07:37:31;15.00;;;5.13;;
1591;SDS011;789;51.612;7.510;2023-04-25T07:40:01;10.10;;;3.77;;
1591;SDS011;789;51.612;7.510;2023-04-25T07:42:32;16.13;;;4.57;;
1591;SDS011;789;51.612;7.510;2023-04-25T07:45:00;10.40;;;4.23;;
1591;SDS011;789;51.612;7.510;2023-04-25T07:47:27;16.03;;;4.83;;
1591;SDS011;789;51.612;7.510;2023-04-25T07:49:54;13.80;;;4.30;;
1591;SDS011;789;51.612;7.510;2023-04-25T07:52:22;18.23;;;4.53;;
1591;SDS011;789;51.612;7.510;2023-04-25T07:54:49;14.30;;;4.23;;
1591;SDS011;789;51.612;7.510;2023-04-25T07:57:18;12.33;;;3.80;;
1591;SDS011;789;51.612;7.510;2023-04-25T07:59:46;8.80;;;3.80;;
1591;SDS011;789;51.612;7.510;2023-04-25T08:02:14;13.30;;;5.53;;
1591;SDS011;789;51.612;7.510;2023-04-25T08:04:41;14.13;;;4.87;;
1591;SDS011;789;51.612;7.510;2023-04-25T08:07:07;11.67;;;4.27;;
1591;SDS011;789;51.612;7.510;2023-04-25T08:09:34;11.60;;;4.23;;
1591;SDS011;789;51.612;7.510;2023-04-25T08:12:03;11.10;;;5.33;;
1591;SDS011;789;51.612;7.510;2023-04-25T08:14:32;14.13;;;3.70;;
1591;SDS011;789;51.612;7.510;2023-04-25T08:17:00;11.30;;;3.97;;
1591;SDS011;789;51.612;7.510;2023-04-25T08:19:28;11.47;;;3.97;;
1591;SDS011;789;51.612;7.510;2023-04-25T08:21:55;10.93;;;3.60;;
1591;SDS011;789;51.612;7.510;2023-04-25T08:24:21;11.50;;;4.53;;
1591;SDS011;789;51.612;7.510;2023-04-25T08:26:48;12.60;;;4.20;;
1591;SDS011;789;51.612;7.510;2023-04-25T08:29:17;9.80;;;3.53;;
1591;SDS011;789;51.612;7.510;2023-04-25T08:31:50;8.40;;;3.50;;
1591;SDS011;789;51.612;7.510;2023-04-25T08:34:17;10.70;;;3.80;;
1591;SDS011;789;51.612;7.510;2023-04-25T08:36:45;17.20;;;3.60;;
1591;SDS011;789;51.612;7.510;2023-04-25T08:39:11;14.60;;;4.07;;
1591;SDS011;789;51.612;7.510;2023-04-25T08:41:38;13.93;;;3.27;;
1591;SDS011;789;51.612;7.510;2023-04-25T08:44:07;12.43;;;4.33;;
1591;SDS011;789;51.612;7.510;2023-04-25T08:46:37;14.20;;;3.80;;
1591;SDS011;789;51.612;7.510;2023-04-25T08:49:07;11.80;;;3.10;;
1591;SDS011;789;51.612;7.510;2023-04-25T08:51:35;8.37;;;2.93;;
1591;SDS011;789;51.612;7.510;2023-04-25T08:54:08;10.50;;;3.00;;
1591;SDS011;789;51.612;7.510;2023-04-25T08:56:36;12.37;;;2.83;;
1591;SDS011;789;51.612;7.510;2023-04-25T08:59:04;10.23;;;2.70;;
1591;SDS011;789;51.612;7.510;2023-04-25T09:01:33;11.83;;;2.80;;
1591;SDS011;789;51.612;7.510;2023-04-25T09:04:02;21.37;;;4.00;;
1591;SDS011;789;51.612;7.510;2023-04-25T09:06:31;14.03;;;3.17;;
1591;SDS011;789;51.612;7.510;2023-04-25T09:09:01;8.40;;;2.73;;
1591;SDS011;789;51.612;7.510;2023-04-25T09:11:30;7.13;;;2.70;;
1591;SDS011;789;51.612;7.510;2023-04-25T09:14:14;6.60;;;2.87;;
1591;SDS011;789;51.612;7.510;2023-04-25T09:16:56;7.00;;;2.50;;
1591;SDS011;789;51.612;7.510;2023-04-25T09:19:25;6.27;;;2.47;;
1591;SDS011;789;51.612;7.510;2023-04-25T09:21:55;8.40;;;2.73;;
1591;SDS011;789;51.612;7.510;2023-04-25T09:27:05;11.70;;;3.30;;
1591;SDS011;789;51.612;7.510;2023-04-25T09:29:34;9.30;;;2.97;;
1591;SDS011;789;51.612;7.510;2023-04-25T09:32:12;5.33;;;2.70;;
1591;SDS011;789;51.612;7.510;2023-04-25T09:34:46;5.73;;;2.47;;
1591;SDS011;789;51.612;7.510;2023-04-25T09:37:21;10.93;;;2.70;;
1591;SDS011;789;51.612;7.510;2023-04-25T09:39:50;6.57;;;3.03;;
1591;SDS011;789;51.612;7.510;2023-04-25T09:42:21;12.90;;;3.53;;
1591;SDS011;789;51.612;7.510;2023-04-25T09:44:51;7.37;;;2.80;;
1591;SDS011;789;51.612;7.510;2023-04-25T09:47:18;10.50;;;2.97;;
1591;SDS011;789;51.612;7.510;2023-04-25T09:49:47;13.60;;;3.53;;
1591;SDS011;789;51.612;7.510;2023-04-25T09:52:15;4.67;;;2.57;;
1591;SDS011;789;51.612;7.510;2023-04-25T09:54:44;7.00;;;2.13;;
1591;SDS011;789;51.612;7.510;2023-04-25T09:57:12;4.87;;;1.80;;
1591;SDS011;789;51.612;7.510;2023-04-25T09:59:43;7.07;;;2.80;;
1591;SDS011;789;51.612;7.510;2023-04-25T10:02:13;8.50;;;3.17;;
1591;SDS011;789;51.612;7.510;2023-04-25T10:04:42;5.47;;;2.40;;
1591;SDS011;789;51.612;7.510;2023-04-25T10:07:13;10.67;;;2.20;;
1591;SDS011;789;51.612;7.510;2023-04-25T10:09:40;6.70;;;1.97;;
1591;SDS011;789;51.612;7.510;2023-04-25T10:12:12;4.67;;;1.97;;
1591;SDS011;789;51.612;7.510;2023-04-25T10:14:39;6.17;;;2.30;;
1591;SDS011;789;51.612;7.510;2023-04-25T10:17:06;6.97;;;1.80;;
1591;SDS011;789;51.612;7.510;2023-04-25T10:19:36;5.87;;;2.07;;
1591;SDS011;789;51.612;7.510;2023-04-25T10:22:04;7.63;;;2.10;;
1591;SDS011;789;51.612;7.510;2023-04-25T10:24:34;13.50;;;3.20;;
1591;SDS011;789;51.612;7.510;2023-04-25T10:27:01;5.90;;;1.80;;
1591;SDS011;789;51.612;7.510;2023-04-25T10:29:30;7.10;;;2.63;;
1591;SDS011;789;51.612;7.510;2023-04-25T10:32:00;7.13;;;2.10;;
1591;SDS011;789;51.612;7.510;2023-04-25T10:34:37;6.37;;;1.77;;
1591;SDS011;789;51.612;7.510;2023-04-25T10:37:07;6.83;;;2.57;;
1591;SDS011;789;51.612;7.510;2023-04-25T10:39:45;8.07;;;2.40;;
1591;SDS011;789;51.612;7.510;2023-04-25T10:42:12;12.00;;;3.00;;
1591;SDS011;789;51.612;7.510;2023-04-25T10:44:38;7.03;;;2.50;;
1591;SDS011;789;51.612;7.510;2023-04-25T10:47:06;7.17;;;3.47;;
1591;SDS011;789;51.612;7.510;2023-04-25T10:49:35;11.40;;;3.40;;
1591;SDS011;789;51.612;7.510;2023-04-25T10:52:11;5.80;;;2.47;;
1591;SDS011;789;51.612;7.510;2023-04-25T10:54:40;9.90;;;2.67;;
1591;SDS011;789;51.612;7.510;2023-04-25T10:57:15;6.80;;;1.80;;
1591;SDS011;789;51.612;7.510;2023-04-25T10:59:53;7.73;;;2.17;;
1591;SDS011;789;51.612;7.510;2023-04-25T11:02:20;10.60;;;2.90;;
1591;SDS011;789;51.612;7.510;2023-04-25T11:04:53;7.30;;;2.90;;
1591;SDS011;789;51.612;7.510;2023-04-25T11:07:23;7.83;;;2.70;;
1591;SDS011;789;51.612;7.510;2023-04-25T11:09:57;4.37;;;2.07;;
1591;SDS011;789;51.612;7.510;2023-04-25T11:12:29;6.27;;;2.30;;
1591;SDS011;789;51.612;7.510;2023-04-25T11:14:59;12.00;;;2.10;;
1591;SDS011;789;51.612;7.510;2023-04-25T11:17:27;8.93;;;2.67;;
1591;SDS011;789;51.612;7.510;2023-04-25T11:19:55;8.27;;;2.53;;
1591;SDS011;789;51.612;7.510;2023-04-25T11:22:22;3.87;;;2.10;;
1591;SDS011;789;51.612;7.510;2023-04-25T11:24:49;6.43;;;1.33;;
1591;SDS011;789;51.612;7.510;2023-04-25T11:27:16;3.40;;;1.70;;
1591;SDS011;789;51.612;7.510;2023-04-25T11:29:45;4.77;;;1.37;;
1591;SDS011;789;51.612;7.510;2023-04-25T11:32:14;2.50;;;1.20;;
1591;SDS011;789;51.612;7.510;2023-04-25T11:34:42;18.20;;;2.50;;
1591;SDS011;789;51.612;7.510;2023-04-25T11:37:11;8.33;;;2.67;;
1591;SDS011;789;51.612;7.510;2023-04-25T11:39:39;4.10;;;1.83;;
1591;SDS011;789;51.612;7.510;2023-04-25T11:42:09;23.10;;;3.30;;
1591;SDS011;789;51.612;7.510;2023-04-25T11:44:37;14.43;;;3.00;;
1591;SDS011;789;51.612;7.510;2023-04-25T11:47:06;4.77;;;1.70;;
1591;SDS011;789;51.612;7.510;2023-04-25T11:49:33;4.30;;;1.30;;
1591;SDS011;789;51.612;7.510;2023-04-25T11:52:01;3.67;;;1.30;;
1591;SDS011;789;51.612;7.510;2023-04-25T11:54:28;3.37;;;1.53;;
1591;SDS011;789;51.612;7.510;2023-04-25T11:56:54;6.90;;;2.10;;
1591;SDS011;789;51.612;7.510;2023-04-25T11:59:22;4.43;;;1.70;;
1591;SDS011;789;51.612;7.510;2023-04-25T12:01:50;4.60;;;2.03;;
1591;SDS011;789;51.612;7.510;2023-04-25T12:04:19;5.93;;;1.70;;
1591;SDS011;789;51.612;7.510;2023-04-25T12:06:48;3.60;;;1.30;;
1591;SDS011;789;51.612;7.510;2023-04-25T12:09:16;2.50;;;1.60;;
1591;SDS011;789;51.612;7.510;2023-04-25T12:11:44;6.07;;;2.10;;
1591;SDS011;789;51.612;7.510;2023-04-25T12:14:12;3.70;;;1.43;;
1591;SDS011;789;51.612;7.510;2023-04-25T12:16:48;11.83;;;1.83;;
1591;SDS011;789;51.612;7.510;2023-04-25T12:19:16;3.20;;;1.30;;
1591;SDS011;789;51.612;7.510;2023-04-25T12:21:45;6.17;;;2.13;;
1591;SDS011;789;51.612;7.510;2023-04-25T12:24:13;4.60;;;1.50;;
1591;SDS011;789;51.612;7.510;2023-04-25T12:26:47;6.03;;;1.63;;
1591;SDS011;789;51.612;7.510;2023-04-25T12:29:19;3.20;;;1.70;;
1591;SDS011;789;51.612;7.510;2023-04-25T12:31:47;4.27;;;1.50;;
1591;SDS011;789;51.612;7.510;2023-04-25T12:34:16;3.60;;;1.50;;
1591;SDS011;789;51.612;7.510;2023-04-25T12:36:47;2.60;;;1.40;;
1591;SDS011;789;51.612;7.510;2023-04-25T12:39:15;6.27;;;1.90;;
1591;SDS011;789;51.612;7.510;2023-04-25T12:41:42;6.97;;;1.80;;
1591;SDS011;789;51.612;7.510;2023-04-25T12:44:09;3.07;;;1.00;;
1591;SDS011;789;51.612;7.510;2023-04-25T12:46:42;1.87;;;1.10;;
1591;SDS011;789;51.612;7.510;2023-04-25T12:49:10;6.10;;;1.63;;
1591;SDS011;789;51.612;7.510;2023-04-25T12:51:37;7.43;;;1.53;;
1591;SDS011;789;51.612;7.510;2023-04-25T12:54:06;2.87;;;1.80;;
1591;SDS011;789;51.612;7.510;2023-04-25T12:56:33;3.87;;;1.70;;
1591;SDS011;789;51.612;7.510;2023-04-25T12:59:01;2.33;;;1.50;;
1591;SDS011;789;51.612;7.510;2023-04-25T13:01:29;5.97;;;1.60;;
1591;SDS011;789;51.612;7.510;2023-04-25T13:03:56;4.67;;;2.07;;
1591;SDS011;789;51.612;7.510;2023-04-25T13:06:23;7.30;;;2.13;;
1591;SDS011;789;51.612;7.510;2023-04-25T13:08:51;6.40;;;1.70;;
1591;SDS011;789;51.612;7.510;2023-04-25T13:11:19;6.60;;;2.03;;
1591;SDS011;789;51.612;7.510;2023-04-25T13:13:46;3.93;;;1.70;;
1591;SDS011;789;51.612;7.510;2023-04-25T13:16:13;3.70;;;1.73;;
1591;SDS011;789;51.612;7.510;2023-04-25T13:18:40;3.10;;;1.60;;
1591;SDS011;789;51.612;7.510;2023-04-25T13:21:06;4.80;;;1.90;;
1591;SDS011;789;51.612;7.510;2023-04-25T13:23:35;5.90;;;1.80;;
1591;SDS011;789;51.612;7.510;2023-04-25T13:26:02;3.37;;;1.33;;
1591;SDS011;789;51.612;7.510;2023-04-25T13:28:32;4.00;;;1.20;;
1591;SDS011;789;51.612;7.510;2023-04-25T13:30:59;5.13;;;1.63;;
1591;SDS011;789;51.612;7.510;2023-04-25T13:33:26;4.47;;;1.70;;
1591;SDS011;789;51.612;7.510;2023-04-25T13:35:53;5.00;;;1.73;;
1591;SDS011;789;51.612;7.510;2023-04-25T13:38:22;2.70;;;1.30;;
1591;SDS011;789;51.612;7.510;2023-04-25T13:40:50;3.17;;;1.30;;
1591;SDS011;789;51.612;7.510;2023-04-25T13:43:18;1.83;;;1.60;;
1591;SDS011;789;51.612;7.510;2023-04-25T13:45:47;4.03;;;1.23;;
1591;SDS011;789;51.612;7.510;2023-04-25T13:48:14;7.37;;;1.73;;
1591;SDS011;789;51.612;7.510;2023-04-25T13:50:41;2.27;;;1.40;;
1591;SDS011;789;51.612;7.510;2023-04-25T13:53:08;6.33;;;2.00;;
1591;SDS011;789;51.612;7.510;2023-04-25T13:55:35;3.60;;;1.43;;
1591;SDS011;789;51.612;7.510;2023-04-25T13:58:03;3.03;;;1.80;;
1591;SDS011;789;51.612;7.510;2023-04-25T14:00:33;3.87;;;2.37;;
1591;SDS011;789;51.612;7.510;2023-04-25T14:03:04;6.20;;;3.00;;
1591;SDS011;789;51.612;7.510;2023-04-25T14:05:32;5.70;;;3.47;;
1591;SDS011;789;51.612;7.510;2023-04-25T14:08:02;3.90;;;2.10;;
1591;SDS011;789;51.612;7.510;2023-04-25T14:10:33;3.87;;;2.20;;
1591;SDS011;789;51.612;7.510;2023-04-25T14:13:00;3.70;;;1.50;;
1591;SDS011;789;51.612;7.510;2023-04-25T14:15:28;2.13;;;1.53;;
1591;SDS011;789;51.612;7.510;2023-04-25T14:17:55;5.77;;;1.57;;
1591;SDS011;789;51.612;7.510;2023-04-25T14:20:24;4.77;;;1.53;;
1591;SDS011;789;51.612;7.510;2023-04-25T14:22:51;2.10;;;1.30;;
1591;SDS011;789;51.612;7.510;2023-04-25T14:25:19;3.57;;;1.63;;
1591;SDS011;789;51.612;7.510;2023-04-25T14:27:46;9.50;;;2.30;;
1591;SDS011;789;51.612;7.510;2023-04-25T14:30:15;3.70;;;1.60;;
1591;SDS011;789;51.612;7.510;2023-04-25T14:32:44;2.43;;;1.33;;
1591;SDS011;789;51.612;7.510;2023-04-25T14:35:11;6.50;;;1.80;;
1591;SDS011;789;51.612;7.510;2023-04-25T14:37:39;2.87;;;1.43;;
1591;SDS011;789;51.612;7.510;2023-04-25T14:40:09;4.07;;;1.33;;
1591;SDS011;789;51.612;7.510;2023-04-25T14:42:38;3.97;;;1.33;;
1591;SDS011;789;51.612;7.510;2023-04-25T14:45:05;4.60;;;1.60;;
1591;SDS011;789;51.612;7.510;2023-04-25T14:47:33;2.57;;;1.50;;
1591;SDS011;789;51.612;7.510;2023-04-25T14:50:03;4.70;;;1.57;;
1591;SDS011;789;51.612;7.510;2023-04-25T14:52:32;6.37;;;2.03;;
1591;SDS011;789;51.612;7.510;2023-04-25T14:55:00;4.50;;;2.20;;
1591;SDS011;789;51.612;7.510;2023-04-25T14:57:30;4.90;;;1.80;;
1591;SDS011;789;51.612;7.510;2023-04-25T14:59:58;6.50;;;3.97;;
1591;SDS011;789;51.612;7.510;2023-04-25T15:02:26;4.20;;;1.50;;
1591;SDS011;789;51.612;7.510;2023-04-25T15:04:54;3.00;;;1.60;;
1591;SDS011;789;51.612;7.510;2023-04-25T15:07:21;2.70;;;1.57;;
1591;SDS011;789;51.612;7.510;2023-04-25T15:09:48;9.57;;;1.70;;
1591;SDS011;789;51.612;7.510;2023-04-25T15:12:17;8.10;;;2.20;;
1591;SDS011;789;51.612;7.510;2023-04-25T15:14:44;3.43;;;1.93;;
1591;SDS011;789;51.612;7.510;2023-04-25T15:17:11;3.03;;;1.50;;
1591;SDS011;789;51.612;7.510;2023-04-25T15:19:40;5.27;;;1.73;;
1591;SDS011;789;51.612;7.510;2023-04-25T15:22:06;3.00;;;1.40;;
1591;SDS011;789;51.612;7.510;2023-04-25T15:24:33;2.80;;;1.37;;
1591;SDS011;789;51.612;7.510;2023-04-25T15:27:00;4.70;;;1.60;;
1591;SDS011;789;51.612;7.510;2023-04-25T15:29:29;2.03;;;1.30;;